createdAt,value
2018-12-13T00:01:24.325Z,2.59
2018-12-13T00:03:53.176Z,2.86
2018-12-13T00:06:22.213Z,3.06
2018-12-13T00:08:51.098Z,3.22
2018-12-13T00:11:20.061Z,3.29
2018-12-13T00:13:48.792Z,3.43
2018-12-13T00:16:17.724Z,3.53
2018-12-13T00:18:46.565Z,3.61
2018-12-13T00:21:15.606Z,3.64
2018-12-13T00:23:44.709Z,3.67
2018-12-13T00:26:13.686Z,3.63
2018-12-13T00:28:42.764Z,3.58
2018-12-13T00:31:11.709Z,3.50
2018-12-13T00:33:40.592Z,3.54
2018-12-13T00:36:09.608Z,3.54
2018-12-13T00:38:38.524Z,3.55
2018-12-13T00:41:07.577Z,3.42
2018-12-13T00:43:36.552Z,3.28
2018-12-13T00:46:05.558Z,3.17
2018-12-13T00:48:34.552Z,2.74
2018-12-13T00:51:03.453Z,2.47
2018-12-13T00:53:32.500Z,2.30
2018-12-13T00:56:01.576Z,2.21
2018-12-13T00:58:30.563Z,2.01
2018-12-13T01:01:01.489Z,1.90
2018-12-13T01:03:31.148Z,1.82
2018-12-13T01:06:00.179Z,1.69
2018-12-13T01:08:29.181Z,1.72
2018-12-13T01:10:58.162Z,1.58
2018-12-13T01:13:27.176Z,1.49
2018-12-13T01:15:56.175Z,1.37
2018-12-13T01:18:25.282Z,1.32
2018-12-13T01:20:54.275Z,1.17
2018-12-13T01:23:22.941Z,1.11
2018-12-13T01:25:51.923Z,1.15
2018-12-13T01:28:20.905Z,1.25
2018-12-13T01:30:50.000Z,1.26
2018-12-13T01:33:19.059Z,1.22
2018-12-13T01:35:48.084Z,1.07
2018-12-13T01:38:17.015Z,1.07
2018-12-13T01:40:45.874Z,1.10
2018-12-13T01:43:14.882Z,1.06
2018-12-13T01:45:43.681Z,1.00
2018-12-13T01:48:12.837Z,1.08
2018-12-13T01:50:41.808Z,1.09
2018-12-13T01:53:10.484Z,0.99
2018-12-13T01:55:39.194Z,0.96
2018-12-13T01:58:08.547Z,0.96
2018-12-13T02:00:37.614Z,0.95
2018-12-13T02:03:06.737Z,0.92
2018-12-13T02:05:35.782Z,0.85
2018-12-13T02:08:04.433Z,0.83
2018-12-13T02:10:33.426Z,0.76
2018-12-13T02:13:02.462Z,0.70
2018-12-13T02:15:33.241Z,0.69
2018-12-13T02:18:02.254Z,0.62
2018-12-13T02:20:31.328Z,0.57
2018-12-13T02:23:00.348Z,0.47
2018-12-13T02:25:29.398Z,0.46
2018-12-13T02:27:58.562Z,0.43
2018-12-13T02:30:27.789Z,0.42
2018-12-13T02:32:56.724Z,0.43
2018-12-13T02:35:25.661Z,0.46
2018-12-13T02:37:54.568Z,0.46
2018-12-13T02:40:23.536Z,0.33
2018-12-13T02:42:52.716Z,0.21
2018-12-13T02:45:21.556Z,0.30
2018-12-13T02:47:50.595Z,0.51
2018-12-13T02:50:19.677Z,0.64
2018-12-13T02:52:48.390Z,0.74
2018-12-13T02:55:17.139Z,0.72
2018-12-13T02:57:45.951Z,0.69
2018-12-13T03:00:14.815Z,0.80
2018-12-13T03:02:43.614Z,0.75
2018-12-13T03:05:12.626Z,0.76
2018-12-13T03:07:41.755Z,0.74
2018-12-13T03:10:10.731Z,0.64
2018-12-13T03:12:39.711Z,0.59
2018-12-13T03:15:08.676Z,0.49
2018-12-13T03:17:37.287Z,0.45
2018-12-13T03:20:06.978Z,0.42
2018-12-13T03:22:35.873Z,0.32
2018-12-13T03:25:04.894Z,0.37
2018-12-13T03:27:33.927Z,0.49
2018-12-13T03:30:02.988Z,0.49
2018-12-13T03:32:32.106Z,0.48
2018-12-13T03:35:01.304Z,0.50
2018-12-13T03:37:30.100Z,0.46
2018-12-13T03:39:58.998Z,0.37
2018-12-13T03:42:28.042Z,0.33
2018-12-13T03:44:57.039Z,0.35
2018-12-13T03:47:25.906Z,0.38
2018-12-13T03:49:54.793Z,0.36
2018-12-13T03:52:23.816Z,0.32
2018-12-13T03:54:52.926Z,0.28
2018-12-13T03:57:22.083Z,0.16
2018-12-13T03:59:50.800Z,0.03
2018-12-13T04:02:19.780Z,0.08
2018-12-13T04:04:48.652Z,0.12
2018-12-13T04:07:17.633Z,0.04
2018-12-13T04:09:46.561Z,0.03
2018-12-13T04:12:15.733Z,-0.04
2018-12-13T04:14:44.732Z,-0.09
2018-12-13T04:17:13.439Z,-0.08
2018-12-13T04:19:42.150Z,-0.07
2018-12-13T04:22:11.145Z,-0.07
2018-12-13T04:24:40.284Z,-0.10
2018-12-13T04:27:09.277Z,-0.19
2018-12-13T04:29:38.075Z,-0.20
2018-12-13T04:32:06.959Z,-0.17
2018-12-13T04:34:35.859Z,-0.14
2018-12-13T04:37:04.991Z,-0.16
2018-12-13T04:39:34.137Z,-0.15
2018-12-13T04:42:02.806Z,-0.15
2018-12-13T04:44:31.526Z,-0.27
2018-12-13T04:47:00.507Z,-0.36
2018-12-13T04:49:29.627Z,-0.36
2018-12-13T04:51:58.751Z,-0.35
2018-12-13T04:54:27.931Z,-0.41
2018-12-13T04:56:56.862Z,-0.48
2018-12-13T04:59:25.929Z,-0.38
2018-12-13T05:01:54.665Z,-0.40
2018-12-13T05:04:23.641Z,-0.44
2018-12-13T05:06:52.686Z,-0.51
2018-12-13T05:09:21.562Z,-0.48
2018-12-13T05:11:50.501Z,-0.49
2018-12-13T05:14:19.398Z,-0.46
2018-12-13T05:16:48.390Z,-0.41
2018-12-13T05:19:17.097Z,-0.39
2018-12-13T05:21:45.992Z,-0.44
2018-12-13T05:24:15.167Z,-0.44
2018-12-13T05:26:44.228Z,-0.40
2018-12-13T05:29:13.008Z,-0.40
2018-12-13T05:31:41.940Z,-0.37
2018-12-13T05:34:10.692Z,-0.30
2018-12-13T05:36:39.397Z,-0.21
2018-12-13T05:39:09.160Z,-0.15
2018-12-13T05:41:38.367Z,-0.11
2018-12-13T05:44:07.529Z,-0.10
2018-12-13T05:46:36.592Z,-0.08
2018-12-13T05:49:05.543Z,-0.12
2018-12-13T05:51:34.318Z,-0.16
2018-12-13T05:54:03.312Z,-0.13
2018-12-13T05:56:32.150Z,0.04
2018-12-13T05:59:01.213Z,0.11
2018-12-13T06:01:30.370Z,0.09
2018-12-13T06:03:59.454Z,0.16
2018-12-13T06:06:28.178Z,0.26
2018-12-13T06:08:56.835Z,0.27
2018-12-13T06:11:25.825Z,0.35
2018-12-13T06:13:54.856Z,0.35
2018-12-13T06:16:24.012Z,0.34
2018-12-13T06:18:53.118Z,0.29
2018-12-13T06:21:22.067Z,0.27
2018-12-13T06:23:50.755Z,0.25
2018-12-13T06:26:19.779Z,0.23
2018-12-13T06:28:48.679Z,0.30
2018-12-13T06:31:17.904Z,0.28
2018-12-13T06:33:47.032Z,0.22
2018-12-13T06:36:15.968Z,0.16
2018-12-13T06:38:44.797Z,0.14
2018-12-13T06:41:13.842Z,0.31
2018-12-13T06:43:42.817Z,0.41
2018-12-13T06:46:11.816Z,0.60
2018-12-13T06:48:40.725Z,0.66
2018-12-13T06:51:09.831Z,0.51
2018-12-13T06:53:38.892Z,0.69
2018-12-13T06:56:07.932Z,0.72
2018-12-13T06:58:37.055Z,0.91
2018-12-13T07:01:06.174Z,1.05
2018-12-13T07:03:35.222Z,0.96
2018-12-13T07:06:04.227Z,0.96
2018-12-13T07:08:33.255Z,1.01
2018-12-13T07:11:02.209Z,1.10
2018-12-13T07:13:31.334Z,1.33
2018-12-13T07:16:00.230Z,1.76
2018-12-13T07:18:29.048Z,1.90
2018-12-13T07:20:58.028Z,1.86
2018-12-13T07:23:27.145Z,2.14
2018-12-13T07:25:56.258Z,2.22
2018-12-13T07:28:25.182Z,2.21
2018-12-13T07:30:54.193Z,2.32
2018-12-13T07:33:23.372Z,2.43
2018-12-13T07:35:52.459Z,2.43
2018-12-13T07:38:21.456Z,2.57
2018-12-13T07:40:50.494Z,2.66
2018-12-13T07:43:19.540Z,2.82
2018-12-13T07:45:48.500Z,3.02
2018-12-13T07:48:17.472Z,3.12
2018-12-13T07:50:46.411Z,3.21
2018-12-13T07:53:15.346Z,3.14
2018-12-13T07:55:44.566Z,3.05
2018-12-13T07:58:13.563Z,3.11
2018-12-13T08:00:42.344Z,3.20
2018-12-13T08:03:11.263Z,3.34
2018-12-13T08:05:40.340Z,3.60
2018-12-13T08:08:09.489Z,3.81
2018-12-13T08:10:38.365Z,4.06
2018-12-13T08:13:07.441Z,4.29
2018-12-13T08:15:36.177Z,4.32
2018-12-13T08:18:05.344Z,4.35
2018-12-13T08:20:34.335Z,4.63
2018-12-13T08:23:03.377Z,5.04
2018-12-13T08:25:32.310Z,5.37
2018-12-13T08:28:02.005Z,5.86
2018-12-13T08:30:30.932Z,6.42
2018-12-13T08:32:59.929Z,7.02
2018-12-13T08:35:28.916Z,7.63
2018-12-13T08:37:57.948Z,8.22
2018-12-13T08:40:27.087Z,8.56
2018-12-13T08:42:55.848Z,8.91
2018-12-13T08:45:24.935Z,9.43
2018-12-13T08:47:54.079Z,9.86
2018-12-13T08:50:22.986Z,10.23
2018-12-13T08:52:52.199Z,10.62
2018-12-13T08:55:21.251Z,11.27
2018-12-13T08:57:50.159Z,11.92
2018-12-13T09:00:18.804Z,12.60
2018-12-13T09:02:47.731Z,13.12
2018-12-13T09:05:16.699Z,13.17
2018-12-13T09:07:45.815Z,13.37
2018-12-13T09:10:14.784Z,13.12
2018-12-13T09:12:43.726Z,13.25
2018-12-13T09:15:12.776Z,12.95
2018-12-13T09:17:41.777Z,12.90
2018-12-13T09:20:10.812Z,12.84
2018-12-13T09:22:39.784Z,12.88
2018-12-13T09:25:08.737Z,12.23
2018-12-13T09:27:37.859Z,12.37
2018-12-13T09:30:07.471Z,12.22
2018-12-13T09:32:36.372Z,12.46
2018-12-13T09:35:06.220Z,12.39
2018-12-13T09:37:35.279Z,12.13
2018-12-13T09:40:04.756Z,12.19
2018-12-13T09:42:33.663Z,12.36
2018-12-13T09:45:02.619Z,12.58
2018-12-13T09:47:31.687Z,12.90
2018-12-13T09:50:00.741Z,12.48
2018-12-13T09:52:29.756Z,12.78
2018-12-13T09:55:05.410Z,12.06
2018-12-13T09:57:34.355Z,12.76
2018-12-13T10:00:04.126Z,12.78
2018-12-13T10:02:33.359Z,12.72
2018-12-13T10:05:02.412Z,13.03
2018-12-13T10:07:31.458Z,12.97
2018-12-13T10:10:00.454Z,12.91
2018-12-13T10:12:29.087Z,13.22
2018-12-13T10:14:58.025Z,13.19
2018-12-13T10:17:27.109Z,13.38
2018-12-13T10:19:56.115Z,13.62
2018-12-13T10:22:25.216Z,13.51
2018-12-13T10:24:54.063Z,14.53
2018-12-13T10:27:23.092Z,15.49
2018-12-13T10:29:52.229Z,16.22
2018-12-13T10:32:21.288Z,16.43
2018-12-13T10:34:50.526Z,16.67
2018-12-13T10:37:19.553Z,16.81
2018-12-13T10:39:48.593Z,17.37
2018-12-13T10:42:17.812Z,17.60
2018-12-13T10:44:46.672Z,17.29
2018-12-13T10:47:15.611Z,17.08
2018-12-13T10:49:44.671Z,16.44
2018-12-13T10:52:13.448Z,16.10
2018-12-13T10:54:42.504Z,15.99
2018-12-13T10:57:11.246Z,16.29
2018-12-13T10:59:40.284Z,15.61
2018-12-13T11:02:14.533Z,16.38
2018-12-13T11:04:43.740Z,17.23
2018-12-13T11:07:12.586Z,18.19
2018-12-13T11:09:41.614Z,18.77
2018-12-13T11:12:10.672Z,19.56
2018-12-13T11:14:39.717Z,20.03
2018-12-13T11:17:08.590Z,21.07
2018-12-13T11:19:37.285Z,21.65
2018-12-13T11:22:06.231Z,21.79
2018-12-13T11:24:35.326Z,21.66
2018-12-13T11:28:12.680Z,21.02
2018-12-13T11:30:41.727Z,19.79
2018-12-13T11:33:10.654Z,19.32
2018-12-13T11:35:39.603Z,19.18
2018-12-13T11:38:08.670Z,18.36
2018-12-13T11:40:37.734Z,18.25
2018-12-13T11:43:06.784Z,18.61
2018-12-13T11:45:35.691Z,17.23
2018-12-13T11:48:04.872Z,16.69
2018-12-13T11:50:34.110Z,17.95
2018-12-13T11:53:03.222Z,17.72
2018-12-13T11:55:34.168Z,18.13
2018-12-13T11:58:03.825Z,17.87
2018-12-13T12:00:32.853Z,17.95
2018-12-13T12:03:02.625Z,17.75
2018-12-13T12:05:31.434Z,18.14
2018-12-13T12:08:00.499Z,18.63
2018-12-13T12:10:29.511Z,18.91
2018-12-13T12:12:58.629Z,19.73
2018-12-13T12:15:27.712Z,20.47
2018-12-13T12:17:56.533Z,20.81
2018-12-13T12:20:25.606Z,21.04
2018-12-13T12:22:54.682Z,21.37
2018-12-13T12:25:23.740Z,21.76
2018-12-13T12:27:52.849Z,21.93
2018-12-13T12:30:21.533Z,22.61
2018-12-13T12:32:50.512Z,23.67
2018-12-13T12:35:19.443Z,23.60
2018-12-13T12:37:48.454Z,22.78
2018-12-13T12:40:17.125Z,22.75
2018-12-13T12:42:46.298Z,22.26
2018-12-13T12:45:15.436Z,21.31
2018-12-13T12:47:44.373Z,21.72
2018-12-13T12:50:13.495Z,21.49
2018-12-13T12:52:42.656Z,21.68
2018-12-13T12:55:11.701Z,21.92
2018-12-13T12:57:40.640Z,21.94
2018-12-13T13:00:10.991Z,21.20
2018-12-13T13:02:40.014Z,20.57
2018-12-13T13:05:09.152Z,19.75
2018-12-13T13:07:38.164Z,18.57
2018-12-13T13:10:08.048Z,16.95
2018-12-13T13:12:36.767Z,16.33
2018-12-13T13:15:05.903Z,15.75
2018-12-13T13:17:34.732Z,14.59
2018-12-13T13:20:03.787Z,14.38
2018-12-13T13:22:32.989Z,13.91
2018-12-13T13:25:02.115Z,13.72
2018-12-13T13:27:31.224Z,12.98
2018-12-13T13:30:00.083Z,11.86
2018-12-13T13:32:28.924Z,10.79
2018-12-13T13:34:58.827Z,10.06
2018-12-13T13:37:27.586Z,9.63
2018-12-13T13:39:56.521Z,9.24
2018-12-13T13:42:25.576Z,8.78
2018-12-13T13:44:58.744Z,8.48
2018-12-13T13:47:27.773Z,8.34
2018-12-13T13:49:56.881Z,8.05
2018-12-13T13:52:26.009Z,7.90
2018-12-13T13:54:55.152Z,7.72
2018-12-13T13:57:24.172Z,7.51
2018-12-13T13:59:53.134Z,7.38
2018-12-13T14:02:21.858Z,7.34
2018-12-13T14:04:50.804Z,7.33
2018-12-13T14:07:19.953Z,7.33
2018-12-13T14:09:48.977Z,7.34
2018-12-13T14:12:17.784Z,7.31
2018-12-13T14:14:46.731Z,7.25
2018-12-13T14:17:15.571Z,7.18
2018-12-13T14:19:44.664Z,7.21
2018-12-13T14:22:13.691Z,7.15
2018-12-13T14:24:42.678Z,7.06
2018-12-13T14:27:11.795Z,6.93
2018-12-13T14:29:40.723Z,6.90
2018-12-13T14:32:09.745Z,6.95
2018-12-13T14:34:38.611Z,6.91
2018-12-13T14:37:07.384Z,6.67
2018-12-13T14:39:36.057Z,6.55
2018-12-13T14:42:05.333Z,6.47
2018-12-13T14:44:34.519Z,6.46
2018-12-13T14:47:03.777Z,6.38
2018-12-13T14:49:33.483Z,6.33
2018-12-13T14:52:02.217Z,6.34
2018-12-13T14:54:31.074Z,6.34
2018-12-13T14:57:00.060Z,6.25
2018-12-13T14:59:29.976Z,6.19
2018-12-13T15:01:58.957Z,6.15
2018-12-13T15:04:29.016Z,6.09
2018-12-13T15:06:57.812Z,6.04
2018-12-13T15:09:26.517Z,5.99
2018-12-13T15:11:55.348Z,5.99
2018-12-13T15:14:24.147Z,5.95
2018-12-13T15:16:53.333Z,5.95
2018-12-13T15:19:22.299Z,5.88
2018-12-13T15:21:51.389Z,5.81
2018-12-13T15:24:20.504Z,5.74
2018-12-13T15:26:49.559Z,5.84
2018-12-13T15:29:18.547Z,5.92
2018-12-13T15:31:47.468Z,5.93
2018-12-13T15:34:16.529Z,5.88
2018-12-13T15:36:45.571Z,5.85
2018-12-13T15:39:14.608Z,5.84
2018-12-13T15:41:43.282Z,5.66
2018-12-13T15:44:12.277Z,5.45
2018-12-13T15:46:41.212Z,5.26
2018-12-13T15:49:10.219Z,5.18
2018-12-13T15:51:39.143Z,4.98
2018-12-13T15:54:08.169Z,4.82
2018-12-13T15:56:37.171Z,4.65
2018-12-13T15:59:06.620Z,4.53
2018-12-13T16:01:35.474Z,4.46
2018-12-13T16:04:04.551Z,4.45
2018-12-13T16:06:33.508Z,4.43
2018-12-13T16:09:02.405Z,4.40
2018-12-13T16:11:31.364Z,4.31
2018-12-13T16:14:00.285Z,4.26
2018-12-13T16:16:29.228Z,4.19
2018-12-13T16:18:58.163Z,4.16
2018-12-13T16:21:26.892Z,4.07
2018-12-13T16:23:55.922Z,3.99
2018-12-13T16:26:24.939Z,3.96
2018-12-13T16:28:54.000Z,3.85
2018-12-13T16:31:23.049Z,3.71
2018-12-13T16:33:52.067Z,3.72
2018-12-13T16:36:21.903Z,3.64
2018-12-13T16:38:50.932Z,3.54
2018-12-13T16:41:19.910Z,3.58
2018-12-13T16:43:49.030Z,3.55
2018-12-13T16:46:18.272Z,3.46
2018-12-13T16:48:47.205Z,3.44
2018-12-13T16:51:16.180Z,3.48
2018-12-13T16:53:45.184Z,3.43
2018-12-13T16:56:14.933Z,3.36
2018-12-13T16:58:44.197Z,3.44
2018-12-13T17:01:13.251Z,3.32
2018-12-13T17:03:42.807Z,3.28
2018-12-13T17:06:11.844Z,3.28
2018-12-13T17:08:41.049Z,3.25
2018-12-13T17:11:10.088Z,3.17
2018-12-13T17:13:39.928Z,3.09
2018-12-13T17:16:10.007Z,3.05
2018-12-13T17:18:39.204Z,3.07
2018-12-13T17:21:08.295Z,3.05
2018-12-13T17:23:37.241Z,3.00
2018-12-13T17:26:06.120Z,2.96
2018-12-13T17:28:34.916Z,2.95
2018-12-13T17:31:04.005Z,2.93
2018-12-13T17:33:33.016Z,2.96
2018-12-13T17:36:01.901Z,3.02
2018-12-13T17:38:30.838Z,3.02
2018-12-13T17:40:59.479Z,2.94
2018-12-13T17:43:28.406Z,3.17
2018-12-13T17:45:57.452Z,3.26
2018-12-13T17:48:26.458Z,3.28
2018-12-13T17:50:56.024Z,3.26
2018-12-13T17:53:24.983Z,3.29
2018-12-13T17:55:54.192Z,3.35
2018-12-13T17:58:23.260Z,3.48
2018-12-13T18:00:52.488Z,3.45
2018-12-13T18:03:21.440Z,3.38
2018-12-13T18:05:50.590Z,3.30
2018-12-13T18:08:19.623Z,3.43
2018-12-13T18:10:48.745Z,3.42
2018-12-13T18:13:17.584Z,3.44
2018-12-13T18:15:46.491Z,3.36
2018-12-13T18:18:15.333Z,3.32
2018-12-13T18:20:44.390Z,3.28
2018-12-13T18:23:13.336Z,3.33
2018-12-13T18:25:42.422Z,3.38
2018-12-13T18:28:11.669Z,3.37
2018-12-13T18:30:40.675Z,3.23
2018-12-13T18:33:09.459Z,3.38
2018-12-13T18:35:38.747Z,3.54
2018-12-13T18:38:07.656Z,3.59
2018-12-13T18:40:36.796Z,3.65
2018-12-13T18:43:05.801Z,3.56
2018-12-13T18:45:37.763Z,3.50
2018-12-13T18:48:07.437Z,3.47
2018-12-13T18:50:36.143Z,3.51
2018-12-13T18:53:05.303Z,3.54
2018-12-13T18:55:34.602Z,3.62
2018-12-13T18:58:03.563Z,3.59
2018-12-13T19:00:32.300Z,3.51
2018-12-13T19:03:01.440Z,3.54
2018-12-13T19:05:30.516Z,3.58
2018-12-13T19:07:59.484Z,3.58
2018-12-13T19:10:28.592Z,3.54
2018-12-13T19:12:57.782Z,3.56
2018-12-13T19:15:26.959Z,3.61
2018-12-13T19:17:56.127Z,3.62
2018-12-13T19:20:24.872Z,3.81
2018-12-13T19:22:54.847Z,3.84
2018-12-13T19:25:23.815Z,3.88
2018-12-13T19:27:52.898Z,3.88
2018-12-13T19:30:21.935Z,3.82
2018-12-13T19:32:51.055Z,3.93
2018-12-13T19:35:20.195Z,3.96
2018-12-13T19:37:49.036Z,3.86
2018-12-13T19:40:17.884Z,3.79
2018-12-13T19:42:46.964Z,3.90
2018-12-13T19:45:15.703Z,3.93
2018-12-13T19:47:44.813Z,3.87
2018-12-13T19:50:13.963Z,3.81
2018-12-13T19:52:42.779Z,3.73
2018-12-13T19:55:12.330Z,3.69
2018-12-13T19:57:41.228Z,3.63
2018-12-13T20:00:11.552Z,3.54
2018-12-13T20:02:40.690Z,3.45
2018-12-13T20:05:09.736Z,3.53
2018-12-13T20:07:39.028Z,3.75
2018-12-13T20:10:09.197Z,3.81
2018-12-13T20:12:38.011Z,3.83
2018-12-13T20:15:07.712Z,3.82
2018-12-13T20:17:36.752Z,3.62
2018-12-13T20:20:06.241Z,3.57
2018-12-13T20:22:35.036Z,3.62
2018-12-13T20:25:04.028Z,3.78
2018-12-13T20:27:32.995Z,3.68
2018-12-13T20:30:02.179Z,3.57
2018-12-13T20:32:31.528Z,3.64
2018-12-13T20:35:00.974Z,3.71
2018-12-13T20:37:29.760Z,3.83
2018-12-13T20:39:58.557Z,3.73
2018-12-13T20:42:28.362Z,3.64
2018-12-13T20:44:57.508Z,3.51
2018-12-13T20:47:26.390Z,3.35
2018-12-13T20:49:55.337Z,3.42
2018-12-13T20:52:24.253Z,3.46
2018-12-13T20:54:53.099Z,3.45
2018-12-13T20:57:22.062Z,3.44
2018-12-13T20:59:50.966Z,3.36
2018-12-13T21:02:20.046Z,3.30
2018-12-13T21:04:49.032Z,3.38
2018-12-13T21:07:23.068Z,3.56
2018-12-13T21:09:52.642Z,3.51
2018-12-13T21:12:21.905Z,3.51
2018-12-13T21:14:51.035Z,3.61
2018-12-13T21:17:20.048Z,3.67
2018-12-13T21:19:49.277Z,3.71
2018-12-13T21:22:18.476Z,3.88
2018-12-13T21:24:47.653Z,3.92
2018-12-13T21:27:16.850Z,3.89
2018-12-13T21:29:45.543Z,3.86
2018-12-13T21:32:14.640Z,3.98
2018-12-13T21:34:43.684Z,4.01
2018-12-13T21:37:12.686Z,4.05
2018-12-13T21:39:41.775Z,4.06
2018-12-13T21:42:10.525Z,4.02
2018-12-13T21:44:39.454Z,4.01
2018-12-13T21:47:08.177Z,4.09
2018-12-13T21:49:37.273Z,4.11
2018-12-13T21:52:06.192Z,4.11
2018-12-13T21:54:35.431Z,4.05
2018-12-13T21:57:04.420Z,4.06
2018-12-13T21:59:33.561Z,4.09
2018-12-13T22:02:02.497Z,4.03
2018-12-13T22:04:31.357Z,3.89
2018-12-13T22:07:00.388Z,3.84
2018-12-13T22:09:29.418Z,3.73
2018-12-13T22:11:58.537Z,3.60
2018-12-13T22:14:27.566Z,3.50
2018-12-13T22:16:56.803Z,3.45
2018-12-13T22:19:25.783Z,3.31
2018-12-13T22:21:54.555Z,3.31
2018-12-13T22:24:23.869Z,3.48
2018-12-13T22:26:57.314Z,3.45
2018-12-13T22:29:26.099Z,3.31
2018-12-13T22:31:55.149Z,3.21
2018-12-13T22:34:24.417Z,3.13
2018-12-13T22:36:53.748Z,3.00
2018-12-13T22:39:22.696Z,3.08
2018-12-13T22:41:51.725Z,2.97
2018-12-13T22:44:20.739Z,2.85
2018-12-13T22:46:49.692Z,2.75
2018-12-13T22:49:18.483Z,2.54
2018-12-13T22:51:47.465Z,2.41
2018-12-13T22:54:16.511Z,2.33
2018-12-13T22:56:45.457Z,2.29
2018-12-13T22:59:14.265Z,2.33
2018-12-13T23:01:43.428Z,2.25
2018-12-13T23:04:12.106Z,2.23
2018-12-13T23:06:41.154Z,2.14
2018-12-13T23:09:10.212Z,2.23
2018-12-13T23:11:39.149Z,2.24
2018-12-13T23:14:08.257Z,2.27
2018-12-13T23:16:37.213Z,2.25
2018-12-13T23:19:06.283Z,2.24
2018-12-13T23:21:35.382Z,2.24
2018-12-13T23:24:04.204Z,2.13
2018-12-13T23:26:33.249Z,2.37
2018-12-13T23:29:02.213Z,2.47
2018-12-13T23:31:31.303Z,2.33
2018-12-13T23:34:00.329Z,2.19
2018-12-13T23:36:29.332Z,2.15
2018-12-13T23:38:57.997Z,2.07
2018-12-13T23:41:26.826Z,2.06
2018-12-13T23:43:55.513Z,2.04
2018-12-13T23:46:24.315Z,2.03
2018-12-13T23:48:53.316Z,2.01
2018-12-13T23:51:22.425Z,1.99
2018-12-13T23:53:51.389Z,2.00
2018-12-13T23:56:20.475Z,1.99
2018-12-13T23:58:49.421Z,1.95
